Time;durP1;ratioP1;P1;durP2;ratioP2;P2;SDS_P1;SDS_P2;PMS_P1;PMS_P2;Temp;Humidity;BMP_temperature;BMP_pressure;BME280_temperature;BME280_humidity;BME280_pressure;Samples;Min_cycle;Max_cycle;Signal;HPM_P1;HPM_P2
2023/03/23 00:03:13;;;;;;;3.03;1.50;;;12.80;99.90;;;;;;7890923;28;20209;-87
2023/03/23 00:07:02;;;;;;;3.63;1.33;;;12.70;99.90;;;;;;7884012;28;20196;-86
2023/03/23 00:10:52;;;;;;;3.93;1.50;;;12.80;99.90;;;;;;7901319;28;20296;-86
2023/03/23 00:14:43;;;;;;;2.43;1.10;;;12.70;99.90;;;;;;7898380;28;20270;-87
2023/03/23 00:18:29;;;;;;;2.03;1.20;;;12.70;99.90;;;;;;7911546;28;20191;-86
2023/03/23 00:22:16;;;;;;;3.27;1.20;;;12.80;99.90;;;;;;7918673;28;20197;-87
2023/03/23 00:26:02;;;;;;;1.93;1.03;;;12.80;99.90;;;;;;7903042;28;20208;-87
2023/03/23 00:29:55;;;;;;;1.80;1.10;;;12.80;99.90;;;;;;7885514;28;20185;-87
2023/03/23 00:33:40;;;;;;;3.17;1.07;;;12.80;99.90;;;;;;7900169;28;20216;-84
2023/03/23 00:37:27;;;;;;;4.27;1.37;;;12.70;99.90;;;;;;7894937;28;20185;-87
2023/03/23 00:41:15;;;;;;;1.20;1.00;;;12.80;99.90;;;;;;7900231;28;20231;-87
2023/03/23 00:45:00;;;;;;;1.97;1.07;;;12.80;99.90;;;;;;7915439;28;20334;-87
2023/03/23 00:48:46;;;;;;;1.60;1.00;;;12.80;99.90;;;;;;7899943;28;20193;-87
2023/03/23 00:52:32;;;;;;;1.20;0.80;;;12.80;99.90;;;;;;7902800;28;20205;-87
2023/03/23 00:56:17;;;;;;;5.20;1.10;;;12.80;99.90;;;;;;7913158;28;20670;-87
2023/03/23 01:00:09;;;;;;;1.90;1.00;;;12.90;99.90;;;;;;7896213;28;20736;-88
2023/03/23 01:04:00;;;;;;;1.53;1.00;;;12.90;99.90;;;;;;7955357;28;20184;-88
2023/03/23 01:07:46;;;;;;;1.13;0.80;;;12.90;99.90;;;;;;7910968;28;20241;-86
2023/03/23 01:11:31;;;;;;;0.80;0.80;;;12.90;99.90;;;;;;7894191;28;20219;-87
2023/03/23 01:15:18;;;;;;;2.63;0.70;;;13.00;99.60;;;;;;7900167;28;20204;-86
2023/03/23 01:19:04;;;;;;;0.77;0.60;;;13.00;98.00;;;;;;7904928;28;20712;-86
2023/03/23 01:22:50;;;;;;;4.40;1.10;;;13.00;98.00;;;;;;7913787;28;20638;-86
2023/03/23 01:26:35;;;;;;;1.63;0.70;;;13.00;96.90;;;;;;7899011;28;20248;-87
2023/03/23 01:30:21;;;;;;;1.57;0.77;;;13.10;95.70;;;;;;7904781;28;20204;-87
2023/03/23 01:34:07;;;;;;;1.40;0.80;;;13.10;95.90;;;;;;7889248;28;20196;-87
2023/03/23 01:37:54;;;;;;;0.93;0.83;;;13.00;96.00;;;;;;7913834;28;20176;-86
2023/03/23 01:41:40;;;;;;;3.47;0.80;;;13.00;96.10;;;;;;7901377;28;20219;-87
2023/03/23 01:45:36;;;;;;;1.13;0.90;;;13.00;95.80;;;;;;7888341;28;20690;-87
2023/03/23 01:49:27;;;;;;;1.13;0.80;;;13.00;95.80;;;;;;7884132;28;20272;-87
2023/03/23 01:53:14;;;;;;;2.43;0.67;;;13.00;94.80;;;;;;7893692;28;20282;-87
2023/03/23 01:57:11;;;;;;;2.17;0.83;;;13.00;94.00;;;;;;7893384;28;20195;-87
2023/03/23 02:01:00;;;;;;;1.30;0.90;;;13.10;93.90;;;;;;7914301;28;20207;-87
2023/03/23 02:04:46;;;;;;;1.67;0.77;;;13.10;93.60;;;;;;7892870;28;20675;-87
2023/03/23 02:08:32;;;;;;;1.73;0.90;;;13.10;93.30;;;;;;7893449;28;20595;-87
2023/03/23 02:12:18;;;;;;;0.97;0.80;;;13.10;92.80;;;;;;7894424;28;20209;-87
2023/03/23 02:16:08;;;;;;;2.97;1.30;;;13.10;92.60;;;;;;7894201;28;20283;-87
2023/03/23 02:20:06;;;;;;;3.43;0.70;;;13.10;92.30;;;;;;7899944;28;20180;-87
2023/03/23 02:24:20;;;;;;;2.47;0.63;;;13.10;92.20;;;;;;7887538;28;20209;-88
2023/03/23 02:28:09;;;;;;;0.90;0.80;;;13.10;92.10;;;;;;7898222;28;20185;-87
2023/03/23 02:32:09;;;;;;;1.10;0.60;;;13.10;91.70;;;;;;7915377;28;20299;-87
2023/03/23 02:36:25;;;;;;;3.63;0.70;;;13.10;91.10;;;;;;7899347;28;20207;-87
2023/03/23 02:40:24;;;;;;;2.50;0.90;;;13.10;90.90;;;;;;7875562;28;20250;-87
2023/03/23 02:44:12;;;;;;;2.03;0.90;;;13.20;90.60;;;;;;7906384;28;20257;-87
2023/03/23 02:48:01;;;;;;;1.20;0.67;;;13.20;90.20;;;;;;7901444;28;20172;-85
2023/03/23 02:51:49;;;;;;;1.43;0.63;;;13.20;90.10;;;;;;7943297;28;20311;-87
2023/03/23 02:55:41;;;;;;;1.03;0.70;;;13.20;89.50;;;;;;7905939;28;20204;-88
2023/03/23 02:59:27;;;;;;;1.23;0.70;;;13.20;90.30;;;;;;7905522;28;20540;-87
2023/03/23 03:03:18;;;;;;;1.53;0.90;;;13.10;91.90;;;;;;7887927;28;20176;-86
2023/03/23 03:07:17;;;;;;;2.67;1.10;;;13.00;93.00;;;;;;7904302;28;20180;-87
2023/03/23 03:11:07;;;;;;;2.13;1.00;;;13.00;94.50;;;;;;7911881;28;20253;-86
2023/03/23 03:15:36;;;;;;;2.30;1.10;;;12.90;95.70;;;;;;7899854;28;20204;-86
2023/03/23 03:19:31;;;;;;;1.53;1.00;;;12.80;95.80;;;;;;7882207;28;20468;-88
2023/03/23 03:23:19;;;;;;;2.57;1.13;;;12.80;95.70;;;;;;7914387;28;20180;-87
2023/03/23 03:27:10;;;;;;;1.73;1.40;;;12.80;96.50;;;;;;7906278;28;20252;-86
2023/03/23 03:31:00;;;;;;;1.60;1.10;;;12.80;96.80;;;;;;7887800;28;20205;-88
2023/03/23 03:34:47;;;;;;;1.50;1.33;;;12.70;97.70;;;;;;7893453;28;20682;-86
2023/03/23 03:38:42;;;;;;;2.63;1.40;;;12.70;98.40;;;;;;7900534;28;20238;-87
2023/03/23 03:42:28;;;;;;;2.30;1.20;;;12.70;98.30;;;;;;7914476;28;20195;-87
2023/03/23 03:46:13;;;;;;;3.20;1.57;;;12.60;98.40;;;;;;7918136;28;20209;-87
2023/03/23 03:49:59;;;;;;;2.37;1.60;;;12.60;98.30;;;;;;7895607;28;20646;-86
2023/03/23 03:53:45;;;;;;;2.73;1.63;;;12.70;98.20;;;;;;7902024;28;20216;-86
2023/03/23 03:57:30;;;;;;;2.77;1.27;;;12.70;97.10;;;;;;7909881;28;20193;-85
2023/03/23 04:01:18;;;;;;;1.93;1.57;;;12.70;97.30;;;;;;7896881;28;20215;-87
2023/03/23 04:05:04;;;;;;;2.70;1.40;;;12.70;97.60;;;;;;7910922;28;20208;-87
2023/03/23 04:08:50;;;;;;;1.50;1.30;;;12.70;98.00;;;;;;7893740;28;20193;-87
2023/03/23 04:12:36;;;;;;;4.03;1.90;;;12.70;98.50;;;;;;7912248;28;20222;-87
2023/03/23 04:16:22;;;;;;;2.80;1.40;;;12.70;99.50;;;;;;7902080;28;20216;-87
2023/03/23 04:20:13;;;;;;;3.50;1.70;;;12.60;99.90;;;;;;7902291;28;20189;-87
2023/03/23 04:23:59;;;;;;;3.23;1.97;;;12.50;99.90;;;;;;7900580;28;20212;-87
2023/03/23 04:27:46;;;;;;;2.67;1.83;;;12.50;99.90;;;;;;7885051;28;20206;-87
2023/03/23 04:31:31;;;;;;;5.57;2.00;;;12.40;99.90;;;;;;7887900;28;20687;-87
2023/03/23 04:35:19;;;;;;;6.10;1.97;;;12.40;99.90;;;;;;7908661;28;20197;-84
2023/03/23 04:39:09;;;;;;;2.53;1.73;;;12.40;99.90;;;;;;7919348;28;20183;-87
2023/03/23 04:42:57;;;;;;;4.23;2.03;;;12.40;99.90;;;;;;7912996;28;20189;-87
2023/03/23 04:46:45;;;;;;;4.13;2.20;;;12.40;99.90;;;;;;7869829;28;20212;-88
2023/03/23 04:50:32;;;;;;;3.07;2.00;;;12.40;99.90;;;;;;7877133;28;20188;-87
2023/03/23 04:54:18;;;;;;;2.77;1.50;;;12.40;99.90;;;;;;7893130;28;20201;-86
2023/03/23 04:58:07;;;;;;;3.27;1.77;;;12.40;99.90;;;;;;7916028;28;20185;-87
2023/03/23 05:01:53;;;;;;;2.87;1.83;;;12.40;99.90;;;;;;7901541;28;20197;-86
2023/03/23 05:05:40;;;;;;;2.97;2.00;;;12.40;99.90;;;;;;7886985;28;20305;-87
2023/03/23 05:09:25;;;;;;;2.43;1.70;;;12.30;99.90;;;;;;7898589;28;20204;-86
2023/03/23 05:13:11;;;;;;;2.80;1.60;;;12.30;99.90;;;;;;7892577;28;20216;-87
2023/03/23 05:16:56;;;;;;;2.93;1.50;;;12.30;99.90;;;;;;7895102;28;20244;-87
2023/03/23 05:20:43;;;;;;;2.53;1.70;;;12.30;99.90;;;;;;7902643;28;20245;-86
2023/03/23 05:24:32;;;;;;;4.90;1.50;;;12.30;99.90;;;;;;7904263;28;20294;-87
2023/03/23 05:28:18;;;;;;;3.03;1.70;;;12.30;99.90;;;;;;7909458;27;20197;-88
2023/03/23 05:32:05;;;;;;;3.27;1.73;;;12.30;99.90;;;;;;7913164;28;20194;-88
2023/03/23 05:35:51;;;;;;;2.20;1.70;;;12.30;99.90;;;;;;7895320;28;20216;-87
2023/03/23 05:39:36;;;;;;;1.93;1.50;;;12.30;99.90;;;;;;7892864;28;20234;-87
2023/03/23 05:43:22;;;;;;;5.63;1.63;;;12.20;99.90;;;;;;7894285;28;20205;-88
2023/03/23 05:47:08;;;;;;;3.63;1.80;;;12.20;99.90;;;;;;7887676;28;20185;-87
2023/03/23 05:50:53;;;;;;;2.60;1.73;;;12.20;99.90;;;;;;7888759;28;20196;-87
2023/03/23 05:54:39;;;;;;;2.97;1.80;;;12.20;99.90;;;;;;7889768;28;20261;-88
2023/03/23 05:58:24;;;;;;;3.40;1.60;;;12.20;99.90;;;;;;7899243;27;20673;-87
2023/03/23 06:02:11;;;;;;;2.63;1.63;;;12.20;99.90;;;;;;7893479;28;20261;-86
2023/03/23 06:05:57;;;;;;;4.23;1.80;;;12.30;99.90;;;;;;7893577;28;20228;-87
2023/03/23 06:09:43;;;;;;;4.33;1.80;;;12.30;99.90;;;;;;7906632;27;20229;-87
2023/03/23 06:13:28;;;;;;;2.83;1.73;;;12.30;99.90;;;;;;7911553;27;20220;-88
2023/03/23 06:17:17;;;;;;;3.20;1.60;;;12.30;99.90;;;;;;7883949;28;20723;-87
2023/03/23 06:21:04;;;;;;;3.27;1.43;;;12.30;99.90;;;;;;7885589;28;20181;-87
2023/03/23 06:24:49;;;;;;;3.43;1.83;;;12.40;99.90;;;;;;7916401;28;20204;-84
2023/03/23 06:28:35;;;;;;;2.43;1.37;;;12.40;99.90;;;;;;7902555;27;20209;-87
2023/03/23 06:32:22;;;;;;;2.83;1.50;;;12.40;99.90;;;;;;7884542;28;20304;-86
2023/03/23 06:36:08;;;;;;;1.70;1.30;;;12.50;99.90;;;;;;7893369;28;20196;-87
2023/03/23 06:39:54;;;;;;;3.00;1.50;;;12.50;99.90;;;;;;7882346;28;20263;-87
2023/03/23 06:43:39;;;;;;;1.30;1.20;;;12.60;99.90;;;;;;7879017;28;20263;-86
2023/03/23 06:47:26;;;;;;;3.17;1.43;;;12.70;99.70;;;;;;7867551;28;20705;-82
2023/03/23 06:51:11;;;;;;;2.90;1.80;;;12.90;98.70;;;;;;7900396;28;20197;-86
2023/03/23 06:54:57;;;;;;;4.47;1.30;;;12.90;99.00;;;;;;7917867;28;20241;-86
2023/03/23 06:58:45;;;;;;;1.60;1.20;;;13.00;98.30;;;;;;7901932;28;20275;-87
2023/03/23 07:02:30;;;;;;;1.93;1.10;;;13.00;98.00;;;;;;7883266;28;20189;-87
2023/03/23 07:06:16;;;;;;;2.93;1.03;;;13.10;97.80;;;;;;7897173;28;20211;-88
2023/03/23 07:10:03;;;;;;;1.30;0.97;;;13.10;97.90;;;;;;7900519;28;20192;-87
2023/03/23 07:13:49;;;;;;;2.97;1.17;;;13.20;98.30;;;;;;7888791;28;20705;-87
2023/03/23 07:17:35;;;;;;;1.80;1.03;;;13.10;97.90;;;;;;7911294;28;20548;-86
2023/03/23 07:21:21;;;;;;;1.77;1.10;;;13.20;97.50;;;;;;7878729;28;20189;-87
2023/03/23 07:25:07;;;;;;;4.10;1.27;;;13.20;97.80;;;;;;7892546;28;20567;-87
2023/03/23 07:28:53;;;;;;;2.00;1.10;;;13.30;96.70;;;;;;7873273;28;20186;-87
2023/03/23 07:32:38;;;;;;;4.53;1.10;;;13.40;96.60;;;;;;7889751;28;20208;-88
2023/03/23 07:36:25;;;;;;;1.60;1.10;;;13.60;96.30;;;;;;7894207;28;20274;-85
2023/03/23 07:40:14;;;;;;;1.73;0.90;;;13.80;94.20;;;;;;7905187;28;20207;-86
2023/03/23 07:44:00;;;;;;;3.10;1.10;;;13.70;94.70;;;;;;7900943;28;20224;-87
2023/03/23 07:47:46;;;;;;;4.33;1.00;;;13.80;94.40;;;;;;7896468;28;20293;-87
2023/03/23 07:51:32;;;;;;;1.77;1.27;;;13.90;93.70;;;;;;7872004;28;20318;-86
2023/03/23 07:55:18;;;;;;;2.83;1.30;;;13.90;94.50;;;;;;7897955;28;20201;-88
2023/03/23 07:59:04;;;;;;;1.43;1.30;;;13.80;94.00;;;;;;7875112;28;20246;-87
2023/03/23 08:02:55;;;;;;;1.90;1.20;;;13.80;94.50;;;;;;7874314;28;20204;-87
2023/03/23 08:06:41;;;;;;;2.67;1.17;;;13.90;93.60;;;;;;7909340;28;20208;-88
2023/03/23 08:10:27;;;;;;;1.27;1.17;;;13.90;93.60;;;;;;7906926;28;20257;-85
2023/03/23 08:14:13;;;;;;;1.40;0.90;;;13.90;93.80;;;;;;7903934;28;20221;-86
2023/03/23 08:18:00;;;;;;;1.97;1.40;;;14.00;94.00;;;;;;7897613;28;20271;-87
2023/03/23 08:21:46;;;;;;;2.17;1.17;;;14.00;94.70;;;;;;7895055;28;20563;-87
2023/03/23 08:25:32;;;;;;;1.70;1.00;;;14.00;94.30;;;;;;7902739;28;20255;-87
2023/03/23 08:29:18;;;;;;;3.30;1.10;;;14.00;94.00;;;;;;7899452;28;20268;-87
2023/03/23 08:33:04;;;;;;;1.90;1.10;;;14.00;93.30;;;;;;7895922;28;20669;-87
2023/03/23 08:36:51;;;;;;;3.60;1.43;;;14.00;93.80;;;;;;7897842;28;20183;-87
2023/03/23 08:40:39;;;;;;;1.70;1.10;;;14.00;94.80;;;;;;7892242;28;20212;-86
2023/03/23 08:44:24;;;;;;;2.77;1.10;;;13.90;95.30;;;;;;7898990;28;20204;-87
2023/03/23 08:48:10;;;;;;;3.13;1.47;;;13.90;94.90;;;;;;7900914;28;20230;-86
2023/03/23 08:51:56;;;;;;;2.37;1.37;;;13.90;95.60;;;;;;7899422;28;20196;-85
2023/03/23 08:55:42;;;;;;;2.93;1.23;;;13.90;95.60;;;;;;7884375;28;20221;-87
2023/03/23 08:59:28;;;;;;;1.73;1.20;;;13.90;95.90;;;;;;7899516;28;20184;-87
2023/03/23 09:03:15;;;;;;;3.37;1.20;;;13.90;96.20;;;;;;7887582;28;20223;-87
2023/03/23 09:07:00;;;;;;;2.63;1.40;;;13.80;97.00;;;;;;7901984;28;20822;-87
2023/03/23 09:10:46;;;;;;;2.83;1.20;;;13.90;97.70;;;;;;7901692;28;20596;-86
2023/03/23 09:14:32;;;;;;;1.90;1.20;;;13.80;97.90;;;;;;7914847;28;20193;-87
2023/03/23 09:18:18;;;;;;;2.10;1.47;;;13.80;98.70;;;;;;7869380;28;20561;-86
2023/03/23 09:22:04;;;;;;;3.03;1.43;;;13.80;99.50;;;;;;7869855;28;20305;-87
2023/03/23 09:25:51;;;;;;;2.40;1.40;;;13.80;99.90;;;;;;7870434;28;20197;-87
2023/03/23 09:29:36;;;;;;;2.53;1.37;;;13.80;99.80;;;;;;7874254;28;20177;-87
2023/03/23 09:33:22;;;;;;;5.67;1.60;;;13.80;99.90;;;;;;7902982;28;20222;-86
2023/03/23 09:37:08;;;;;;;1.53;1.33;;;13.80;99.90;;;;;;7895132;28;20618;-87
2023/03/23 09:41:01;;;;;;;2.93;1.57;;;13.80;99.90;;;;;;7900544;28;20556;-88
2023/03/23 09:45:12;;;;;;;2.77;1.80;;;13.80;99.90;;;;;;7916858;28;20196;-88
2023/03/23 09:49:03;;;;;;;3.37;1.37;;;13.80;99.90;;;;;;7895199;28;20185;-87
2023/03/23 09:53:23;;;;;;;1.70;1.50;;;13.70;99.90;;;;;;7910045;28;20569;-88
2023/03/23 09:57:30;;;;;;;3.23;1.60;;;13.70;99.90;;;;;;7914670;28;20176;-85
2023/03/23 10:01:27;;;;;;;3.03;1.73;;;13.80;99.90;;;;;;7941815;28;20185;-88
2023/03/23 10:05:12;;;;;;;2.67;1.50;;;13.70;99.90;;;;;;7901920;28;20192;-87
2023/03/23 10:09:01;;;;;;;2.07;1.50;;;13.60;99.90;;;;;;7915913;28;20164;-85
2023/03/23 10:13:04;;;;;;;2.30;1.40;;;13.60;99.90;;;;;;7916825;28;20200;-87
2023/03/23 10:17:09;;;;;;;2.93;1.50;;;13.60;99.90;;;;;;7872090;28;20189;-87
2023/03/23 10:20:57;;;;;;;2.00;1.43;;;13.60;99.90;;;;;;7897087;28;20230;-87
2023/03/23 10:24:52;;;;;;;3.33;2.57;;;13.60;99.90;;;;;;7901501;28;20803;-87
2023/03/23 10:28:47;;;;;;;9.67;5.40;;;13.60;99.90;;;;;;7898590;28;20198;-87
2023/03/23 10:32:50;;;;;;;2.20;1.53;;;13.60;99.90;;;;;;7899789;28;20307;-88
2023/03/23 10:36:42;;;;;;;1.30;1.20;;;13.70;99.90;;;;;;7903875;28;20200;-87
2023/03/23 10:40:29;;;;;;;2.37;1.40;;;13.70;99.90;;;;;;7900457;28;20251;-88
2023/03/23 10:44:22;;;;;;;1.47;1.30;;;13.70;99.90;;;;;;7900623;28;20286;-87
2023/03/23 10:48:17;;;;;;;1.97;1.50;;;13.80;99.90;;;;;;7905492;28;20275;-87
2023/03/23 10:52:19;;;;;;;2.37;1.40;;;13.80;99.90;;;;;;7916132;28;20676;-87
2023/03/23 10:56:18;;;;;;;2.50;1.50;;;13.90;99.90;;;;;;7900347;28;20195;-89
2023/03/23 11:00:18;;;;;;;2.50;1.20;;;13.90;99.90;;;;;;7899174;28;20195;-88
2023/03/23 11:04:11;;;;;;;2.70;1.30;;;13.90;99.90;;;;;;7900804;28;20555;-89
2023/03/23 11:08:01;;;;;;;2.20;1.07;;;13.90;99.90;;;;;;7900854;28;20189;-88
2023/03/23 11:11:52;;;;;;;3.17;1.30;;;14.00;99.90;;;;;;7893188;28;20208;-87
2023/03/23 11:15:40;;;;;;;2.17;1.00;;;14.10;99.90;;;;;;7897639;28;20196;-87
2023/03/23 11:19:31;;;;;;;2.33;1.10;;;14.10;99.90;;;;;;7893175;28;20866;-88
2023/03/23 11:23:31;;;;;;;2.00;1.30;;;14.10;99.90;;;;;;7897230;28;20242;-87
2023/03/23 11:27:18;;;;;;;2.00;0.97;;;14.10;99.90;;;;;;7899735;28;20160;-87
2023/03/23 11:31:06;;;;;;;1.20;1.10;;;14.10;99.90;;;;;;7899124;28;20211;-87
2023/03/23 11:34:59;;;;;;;2.37;1.40;;;14.10;99.90;;;;;;7896235;28;20247;-87
2023/03/23 11:38:44;;;;;;;2.87;1.50;;;14.10;99.90;;;;;;7892564;28;20199;-87
2023/03/23 11:42:57;;;;;;;2.23;1.17;;;14.10;99.90;;;;;;7895621;28;20721;-87
2023/03/23 11:47:11;;;;;;;2.77;1.03;;;14.10;99.90;;;;;;7947152;27;20215;-87
2023/03/23 11:51:02;;;;;;;1.03;0.93;;;14.00;99.90;;;;;;7884334;28;20176;-87
2023/03/23 11:55:14;;;;;;;3.53;1.20;;;14.00;99.90;;;;;;7915832;28;20201;-88
2023/03/23 11:59:02;;;;;;;2.93;1.07;;;14.00;99.90;;;;;;7897929;28;20166;-87
2023/03/23 12:03:12;;;;;;;2.67;1.37;;;13.90;99.90;;;;;;7886518;28;20211;-88
2023/03/23 12:07:22;;;;;;;1.40;1.20;;;13.90;99.90;;;;;;7901045;28;20715;-87
2023/03/23 12:11:41;;;;;;;2.77;1.23;;;13.80;99.90;;;;;;7922708;28;20219;-88
2023/03/23 12:16:00;;;;;;;2.90;1.27;;;13.80;99.90;;;;;;7900321;28;20197;-87
2023/03/23 12:20:10;;;;;;;2.77;0.80;;;13.70;99.90;;;;;;7887627;28;20802;-87
2023/03/23 12:24:05;;;;;;;0.83;0.80;;;13.60;99.90;;;;;;7900097;28;20678;-88
2023/03/23 12:28:10;;;;;;;1.57;0.90;;;13.60;99.90;;;;;;7903020;28;20220;-87
2023/03/23 12:32:18;;;;;;;1.40;1.10;;;13.70;99.90;;;;;;7887458;28;20224;-87
2023/03/23 12:36:21;;;;;;;3.40;1.20;;;13.60;99.90;;;;;;7894124;28;20197;-90
2023/03/23 12:40:38;;;;;;;3.30;1.93;;;13.70;99.90;;;;;;7893722;28;20194;-88
2023/03/23 12:44:32;;;;;;;18.43;8.37;;;13.70;99.90;;;;;;7894144;28;20292;-88
2023/03/23 12:48:33;;;;;;;7.47;4.67;;;13.70;99.90;;;;;;7900332;28;20192;-88
2023/03/23 12:52:28;;;;;;;2.60;1.30;;;13.80;99.90;;;;;;7907230;28;20204;-87
2023/03/23 12:56:38;;;;;;;1.60;1.13;;;13.80;99.90;;;;;;7879743;28;20242;-87
2023/03/23 13:00:34;;;;;;;2.13;1.43;;;13.80;99.90;;;;;;7879984;28;20161;-88
2023/03/23 13:04:26;;;;;;;2.53;1.33;;;13.80;99.90;;;;;;7897688;28;20273;-87
2023/03/23 13:08:19;;;;;;;10.97;6.87;;;13.80;99.90;;;;;;7901522;28;20226;-88
2023/03/23 13:12:08;;;;;;;2.63;1.90;;;13.80;99.90;;;;;;7917909;28;20273;-87
2023/03/23 13:16:22;;;;;;;7.50;6.37;;;13.90;99.90;;;;;;7906405;28;20666;-87
2023/03/23 13:20:31;;;;;;;3.97;2.10;;;13.90;99.90;;;;;;7904942;28;20181;-87
2023/03/23 13:24:22;;;;;;;2.37;2.17;;;13.90;99.90;;;;;;7896348;28;20270;-87
2023/03/23 13:28:15;;;;;;;2.77;1.80;;;13.90;99.90;;;;;;7879898;28;20197;-87
2023/03/23 13:32:29;;;;;;;3.00;1.70;;;14.00;99.90;;;;;;7889463;28;20196;-89
2023/03/23 13:36:17;;;;;;;1.73;1.23;;;14.00;99.90;;;;;;7903283;28;20204;-87
2023/03/23 13:40:11;;;;;;;1.53;1.27;;;14.10;99.90;;;;;;7903916;28;20226;-87
2023/03/23 13:44:27;;;;;;;2.30;1.33;;;14.10;99.90;;;;;;7902353;28;20832;-87
2023/03/23 13:48:13;;;;;;;1.33;1.20;;;14.10;99.90;;;;;;7877202;28;20185;-87
2023/03/23 13:52:07;;;;;;;1.73;1.40;;;14.10;99.90;;;;;;7888752;28;20319;-87
2023/03/23 13:56:07;;;;;;;2.80;1.83;;;14.20;99.90;;;;;;7880166;28;20196;-87
2023/03/23 13:59:59;;;;;;;4.43;2.13;;;14.10;99.90;;;;;;7895350;28;20187;-87
2023/03/23 14:03:54;;;;;;;1.43;1.27;;;14.20;99.90;;;;;;7916505;28;20601;-87
2023/03/23 14:08:01;;;;;;;2.53;1.17;;;14.20;99.90;;;;;;7898819;28;20559;-87
2023/03/23 14:11:56;;;;;;;2.17;1.40;;;14.30;99.90;;;;;;7887391;28;20295;-87
2023/03/23 14:15:53;;;;;;;1.97;1.63;;;14.30;99.90;;;;;;7901030;28;20246;-87
2023/03/23 14:19:42;;;;;;;3.60;3.03;;;14.40;99.90;;;;;;7897188;28;20561;-87
2023/03/23 14:23:32;;;;;;;1.57;1.40;;;14.40;99.90;;;;;;7897920;28;20205;-87
2023/03/23 14:27:21;;;;;;;4.60;2.72;;;14.50;99.90;;;;;;7894247;28;20251;-87
2023/03/23 14:31:24;;;;;;;1.63;1.30;;;14.50;99.90;;;;;;7881389;28;20671;-88
2023/03/23 14:35:14;;;;;;;2.20;1.40;;;14.50;99.90;;;;;;7897601;28;20200;-87
2023/03/23 14:39:19;;;;;;;2.07;1.50;;;14.60;99.90;;;;;;7894082;28;20798;-86
2023/03/23 14:43:11;;;;;;;10.60;1.57;;;14.70;99.90;;;;;;7892623;28;20689;-87
2023/03/23 14:47:01;;;;;;;1.50;1.30;;;14.70;99.90;;;;;;7918170;28;20237;-87
2023/03/23 14:51:02;;;;;;;4.30;1.30;;;14.70;99.90;;;;;;7911158;27;20900;-87
2023/03/23 14:54:48;;;;;;;2.13;1.30;;;14.70;99.90;;;;;;7897741;28;20205;-86
2023/03/23 14:58:35;;;;;;;2.30;1.60;;;14.60;99.90;;;;;;7894597;28;20182;-86
2023/03/23 15:02:35;;;;;;;3.17;1.50;;;14.60;99.90;;;;;;7892072;28;20185;-83
2023/03/23 15:06:23;;;;;;;2.45;1.17;;;14.60;99.90;;;;;;7884686;28;20201;-85
2023/03/23 15:10:18;;;;;;;3.47;1.47;;;14.50;99.90;;;;;;7914824;28;20189;-86
2023/03/23 15:14:20;;;;;;;1.50;1.27;;;14.50;99.90;;;;;;7889504;28;20207;-86
2023/03/23 15:18:37;;;;;;;1.60;1.20;;;14.50;99.90;;;;;;7915325;28;20180;-87
2023/03/23 15:22:25;;;;;;;1.50;1.20;;;14.50;99.90;;;;;;7927689;28;20183;-90
2023/03/23 15:26:30;;;;;;;1.80;1.33;;;14.50;99.90;;;;;;7892168;28;20237;-86
2023/03/23 15:30:29;;;;;;;1.83;1.20;;;14.50;99.90;;;;;;7878234;28;20180;-87
2023/03/23 15:34:26;;;;;;;1.60;1.10;;;14.50;99.90;;;;;;7903456;28;20298;-87
2023/03/23 15:38:30;;;;;;;3.17;1.50;;;14.50;99.90;;;;;;7907437;28;20176;-86
2023/03/23 15:42:32;;;;;;;2.85;1.30;;;14.60;99.90;;;;;;7901760;28;20272;-86
2023/03/23 15:46:24;;;;;;;2.50;1.20;;;14.50;99.90;;;;;;7891757;28;20220;-87
2023/03/23 15:50:16;;;;;;;1.65;1.23;;;14.50;99.90;;;;;;7882579;28;20235;-86
2023/03/23 15:54:13;;;;;;;1.90;1.00;;;14.60;99.90;;;;;;7877652;28;20224;-86
2023/03/23 15:57:59;;;;;;;1.55;1.00;;;14.50;99.90;;;;;;7893670;28;20199;-86
2023/03/23 16:01:45;;;;;;;1.48;1.00;;;14.50;99.90;;;;;;7911933;28;20222;-86
2023/03/23 16:05:31;;;;;;;1.75;1.17;;;14.50;99.90;;;;;;7898563;28;20250;-88
2023/03/23 16:09:19;;;;;;;2.28;1.55;;;14.50;99.90;;;;;;7921932;28;20181;-87
2023/03/23 16:13:05;;;;;;;1.57;1.00;;;14.50;99.90;;;;;;7887792;28;20289;-86
2023/03/23 16:16:51;;;;;;;1.63;1.05;;;14.50;99.90;;;;;;7891724;28;20205;-86
2023/03/23 16:20:37;;;;;;;1.50;1.10;;;14.50;99.90;;;;;;7906248;28;20172;-86
2023/03/23 16:28:17;;;;;;;5.83;3.33;;;14.40;99.90;;;;;;7815551;28;20206;-89
2023/03/23 16:32:03;;;;;;;3.97;2.37;;;14.40;99.90;;;;;;7857594;28;20221;-90
2023/03/23 16:35:49;;;;;;;3.03;1.77;;;14.40;99.90;;;;;;7830688;28;20321;-90
2023/03/23 16:39:35;;;;;;;3.30;1.57;;;14.40;99.90;;;;;;7806247;28;20259;-87
2023/03/23 16:43:20;;;;;;;0.87;0.77;;;14.30;99.90;;;;;;7777790;28;20286;-88
2023/03/23 16:47:07;;;;;;;3.43;1.00;;;14.30;99.90;;;;;;7789218;28;20260;-88
2023/03/23 16:50:56;;;;;;;1.10;0.77;;;14.30;99.90;;;;;;7804155;28;20181;-88
2023/03/23 16:54:42;;;;;;;1.93;1.00;;;14.30;99.90;;;;;;7777658;28;20203;-87
2023/03/23 16:58:27;;;;;;;0.97;0.80;;;14.30;99.90;;;;;;7792359;28;20193;-88
2023/03/23 17:02:15;;;;;;;0.77;0.70;;;14.20;99.90;;;;;;7808580;28;20659;-89
2023/03/23 17:06:01;;;;;;;0.93;0.70;;;14.10;99.90;;;;;;7819354;28;20179;-89
2023/03/23 17:09:53;;;;;;;2.73;1.10;;;14.10;99.90;;;;;;7792788;28;20183;-89
2023/03/23 17:13:40;;;;;;;0.93;0.83;;;14.00;99.90;;;;;;7797400;28;20306;-89
2023/03/23 17:17:32;;;;;;;1.10;1.00;;;14.00;99.90;;;;;;7806166;28;20206;-89
2023/03/23 17:21:24;;;;;;;2.20;1.00;;;13.90;99.90;;;;;;7808236;28;20193;-89
2023/03/23 17:25:10;;;;;;;3.27;0.90;;;13.90;99.90;;;;;;7806864;28;20311;-89
2023/03/23 17:28:56;;;;;;;1.27;1.17;;;13.80;99.90;;;;;;7798568;28;20187;-89
2023/03/23 17:32:42;;;;;;;1.77;1.33;;;13.90;99.90;;;;;;7799636;28;20781;-90
2023/03/23 17:36:28;;;;;;;1.10;1.00;;;13.80;99.90;;;;;;7802930;28;20274;-89
2023/03/23 17:40:14;;;;;;;0.93;0.80;;;13.80;99.90;;;;;;7807534;28;20181;-88
2023/03/23 17:44:00;;;;;;;1.77;0.97;;;13.80;99.90;;;;;;7803269;28;20236;-89
2023/03/23 17:47:46;;;;;;;2.00;1.47;;;13.70;99.90;;;;;;7800019;28;20698;-88
2023/03/23 17:51:32;;;;;;;1.00;0.93;;;13.80;99.90;;;;;;7820080;28;20210;-89
2023/03/23 17:55:17;;;;;;;1.20;0.87;;;13.70;99.90;;;;;;7808379;28;20203;-89
2023/03/23 17:59:03;;;;;;;1.30;1.03;;;13.70;99.90;;;;;;7810722;28;20635;-89
2023/03/23 18:02:49;;;;;;;2.00;1.40;;;13.60;99.90;;;;;;7817287;28;20208;-89
2023/03/23 18:06:34;;;;;;;1.40;1.30;;;13.60;99.90;;;;;;7803095;28;20191;-90
2023/03/23 18:10:20;;;;;;;1.97;1.37;;;13.60;99.90;;;;;;7806803;28;20186;-88
2023/03/23 18:14:09;;;;;;;2.00;1.20;;;13.50;99.90;;;;;;7806761;28;20247;-89
2023/03/23 18:17:56;;;;;;;2.60;1.70;;;13.50;99.90;;;;;;7800154;28;20187;-89
2023/03/23 18:21:43;;;;;;;2.47;2.10;;;13.40;99.90;;;;;;7801188;28;20358;-89
2023/03/23 18:25:30;;;;;;;3.97;2.63;;;13.40;99.90;;;;;;7794059;28;20246;-89
2023/03/23 18:29:15;;;;;;;4.40;2.37;;;13.40;99.90;;;;;;7800135;28;20178;-89
2023/03/23 18:33:01;;;;;;;3.93;2.77;;;13.40;99.90;;;;;;7806347;28;20213;-89
2023/03/23 18:36:46;;;;;;;3.20;2.57;;;13.40;99.90;;;;;;7822057;28;20181;-88
2023/03/23 18:40:32;;;;;;;2.47;2.10;;;13.40;99.90;;;;;;7794103;28;20274;-89
2023/03/23 18:44:18;;;;;;;3.77;2.07;;;13.40;99.90;;;;;;7805115;28;20237;-89
2023/03/23 18:48:05;;;;;;;1.80;1.50;;;13.40;99.90;;;;;;7806470;28;20197;-89
2023/03/23 18:51:50;;;;;;;2.40;1.80;;;13.30;99.90;;;;;;7781259;28;20203;-88
2023/03/23 18:55:36;;;;;;;3.27;1.97;;;13.30;99.90;;;;;;7805897;28;20194;-89
2023/03/23 18:59:22;;;;;;;2.40;1.87;;;13.30;99.90;;;;;;7801191;28;20551;-88
2023/03/23 19:03:08;;;;;;;4.57;1.83;;;13.30;99.90;;;;;;7795486;28;20207;-88
2023/03/23 19:06:55;;;;;;;2.33;1.53;;;13.30;99.90;;;;;;7794267;28;20189;-89
2023/03/23 19:10:42;;;;;;;3.30;1.67;;;13.30;99.90;;;;;;7804681;28;20186;-89
2023/03/23 19:14:28;;;;;;;2.33;1.70;;;13.20;99.90;;;;;;7806404;28;20259;-89
2023/03/23 19:18:24;;;;;;;6.10;2.93;;;13.20;99.90;;;;;;7816903;28;20563;-88
2023/03/23 19:22:11;;;;;;;2.13;1.63;;;13.20;99.90;;;;;;7812660;28;20269;-89
2023/03/23 19:25:57;;;;;;;2.07;1.57;;;13.20;99.90;;;;;;7809518;28;20305;-90
2023/03/23 19:29:44;;;;;;;4.70;1.57;;;13.20;99.90;;;;;;7797836;28;20183;-88
2023/03/23 19:33:36;;;;;;;2.37;1.30;;;13.20;99.90;;;;;;7812586;28;20285;-89
2023/03/23 19:37:22;;;;;;;2.17;1.53;;;13.20;99.90;;;;;;7790611;28;20644;-89
2023/03/23 19:41:08;;;;;;;2.73;1.97;;;13.20;99.90;;;;;;7825384;28;20582;-89
2023/03/23 19:44:53;;;;;;;1.83;1.73;;;13.10;99.90;;;;;;7804312;28;20210;-89
2023/03/23 19:48:52;;;;;;;2.33;1.67;;;13.20;99.90;;;;;;7804178;28;20278;-91
2023/03/23 19:52:40;;;;;;;2.03;1.47;;;13.20;99.90;;;;;;7817093;28;20613;-90
2023/03/23 19:56:27;;;;;;;1.73;1.40;;;13.20;99.90;;;;;;7792371;28;20178;-92
2023/03/23 20:00:13;;;;;;;2.37;1.50;;;13.20;99.90;;;;;;7807313;28;20182;-91
2023/03/23 20:04:03;;;;;;;2.00;1.60;;;13.20;99.90;;;;;;7810006;28;20206;-91